Time;durP1;ratioP1;P1;durP2;ratioP2;P2;SDS_P1;SDS_P2;PMS_P1;PMS_P2;Temp;Humidity;BMP_temperature;BMP_pressure;BME280_temperature;BME280_humidity;BME280_pressure;Samples;Min_cycle;Max_cycle;Signal;HPM_P1;HPM_P2
2023/05/15 00:00:40;;;;;;;20.75;13.45;;;;;;;7.73;100.00;101759.56;5135677;27;20455;-77
2023/05/15 00:03:06;;;;;;;19.85;14.15;;;;;;;7.66;100.00;101755.59;5135212;27;20031;-76
2023/05/15 00:05:31;;;;;;;18.15;13.63;;;;;;;7.56;100.00;101747.38;5135058;27;20397;-76
2023/05/15 00:07:57;;;;;;;18.15;13.32;;;;;;;7.48;100.00;101747.03;5134984;27;20031;-76
2023/05/15 00:10:22;;;;;;;19.38;14.63;;;;;;;7.47;100.00;101744.47;5135169;27;20106;-76
2023/05/15 00:12:48;;;;;;;25.35;16.25;;;;;;;7.44;100.00;101736.72;5135030;27;20038;-77
2023/05/15 00:15:13;;;;;;;24.52;16.73;;;;;;;7.38;100.00;101740.59;5133657;27;20122;-76
2023/05/15 00:17:39;;;;;;;23.98;16.27;;;;;;;7.36;100.00;101727.47;5134962;27;20034;-76
2023/05/15 00:20:06;;;;;;;24.25;16.17;;;;;;;7.41;100.00;101722.72;5134669;27;20106;-76
2023/05/15 00:22:31;;;;;;;25.27;17.45;;;;;;;7.43;100.00;101738.50;5135368;27;20046;-76
2023/05/15 00:24:58;;;;;;;26.08;17.00;;;;;;;7.42;100.00;101728.88;5134895;27;20028;-76
2023/05/15 00:27:23;;;;;;;19.73;15.52;;;;;;;7.36;100.00;101727.47;5133905;27;20067;-76
2023/05/15 00:29:49;;;;;;;35.83;18.77;;;;;;;7.32;100.00;101735.69;5134320;27;20035;-76
2023/05/15 00:32:14;;;;;;;24.92;17.27;;;;;;;7.28;100.00;101736.84;5134862;27;20033;-76
2023/05/15 00:34:40;;;;;;;33.25;18.80;;;;;;;7.26;100.00;101736.94;5134577;27;20042;-76
2023/05/15 00:37:07;;;;;;;31.23;18.10;;;;;;;7.27;100.00;101733.34;5133939;27;20038;-76
2023/05/15 00:39:32;;;;;;;25.95;17.73;;;;;;;7.28;100.00;101726.25;5134329;27;20072;-77
2023/05/15 00:41:59;;;;;;;25.00;17.02;;;;;;;7.30;100.00;101727.00;5134241;27;20351;-76
2023/05/15 00:44:25;;;;;;;32.13;18.00;;;;;;;7.30;100.00;101719.91;5134489;27;20031;-76
2023/05/15 00:46:52;;;;;;;31.42;19.63;;;;;;;7.26;100.00;101734.28;5134346;27;20031;-76
2023/05/15 00:49:19;;;;;;;24.90;16.88;;;;;;;7.20;100.00;101727.56;5134196;27;20041;-77
2023/05/15 00:51:44;;;;;;;24.17;16.30;;;;;;;7.21;100.00;101723.97;5134477;27;20119;-76
2023/05/15 00:54:10;;;;;;;30.35;16.92;;;;;;;7.22;100.00;101714.25;5133818;27;20063;-76
2023/05/15 00:56:36;;;;;;;26.42;17.40;;;;;;;7.21;100.00;101715.16;5134121;27;20067;-76
2023/05/15 00:59:03;;;;;;;29.15;17.67;;;;;;;7.18;100.00;101716.25;5134406;27;20034;-76
2023/05/15 01:01:33;;;;;;;23.52;17.20;;;;;;;7.16;100.00;101709.34;5134320;27;20035;-76
2023/05/15 01:04:02;;;;;;;26.45;17.88;;;;;;;7.15;100.00;101716.44;5133953;27;20034;-76
2023/05/15 01:06:29;;;;;;;26.30;16.23;;;;;;;7.11;100.00;101709.63;5134711;27;20047;-76
2023/05/15 01:08:56;;;;;;;26.95;16.00;;;;;;;7.06;100.00;101704.63;5134013;27;20133;-76
2023/05/15 01:11:26;;;;;;;22.13;14.88;;;;;;;7.02;100.00;101705.75;5134235;27;20084;-76
2023/05/15 01:13:51;;;;;;;25.45;15.73;;;;;;;6.96;100.00;101706.13;5134072;27;20031;-76
2023/05/15 01:16:16;;;;;;;22.75;14.55;;;;;;;6.88;100.00;101708.38;5134141;27;20038;-76
2023/05/15 01:18:42;;;;;;;20.85;14.85;;;;;;;6.79;100.00;101704.53;5133987;27;20454;-76
2023/05/15 01:21:36;;;;;;;20.00;14.23;;;;;;;6.71;100.00;101709.41;5133764;28;20028;-76
2023/05/15 01:24:32;;;;;;;32.00;16.55;;;;;;;6.63;100.00;101704.59;5133894;27;20023;-76
2023/05/15 01:27:19;;;;;;;23.95;15.80;;;;;;;6.64;100.00;101698.38;5132763;28;20023;-76
2023/05/15 01:30:15;;;;;;;20.80;13.82;;;;;;;6.63;100.00;101701.94;5133853;28;20084;-76
2023/05/15 01:32:46;;;;;;;25.33;15.10;;;;;;;6.59;100.00;101696.94;5133776;28;20099;-76
2023/05/15 01:35:32;;;;;;;22.48;14.07;;;;;;;6.59;100.00;101705.72;5132355;28;20031;-76
2023/05/15 01:38:31;;;;;;;26.55;16.85;;;;;;;6.65;100.00;101704.50;5133603;27;20031;-76
2023/05/15 01:41:04;;;;;;;26.77;17.92;;;;;;;6.67;100.00;101708.75;5137807;27;20117;-76
2023/05/15 01:43:32;;;;;;;25.20;16.60;;;;;;;6.66;100.00;101706.22;5138462;27;20106;-76
2023/05/15 01:45:58;;;;;;;30.60;17.13;;;;;;;6.63;100.00;101709.03;5137247;27;20027;-76
2023/05/15 01:48:25;;;;;;;26.08;16.50;;;;;;;6.62;100.00;101705.53;5137352;27;20080;-75
2023/05/15 01:50:53;;;;;;;31.33;19.65;;;;;;;6.61;100.00;101711.75;5138090;27;20046;-76
2023/05/15 01:53:19;;;;;;;31.95;17.35;;;;;;;6.58;100.00;101701.34;5137867;27;20096;-76
2023/05/15 01:55:47;;;;;;;30.33;18.67;;;;;;;6.59;100.00;101704.88;5137793;27;20471;-76
2023/05/15 01:58:13;;;;;;;22.73;15.57;;;;;;;6.57;100.00;101704.97;5138046;27;20031;-77
2023/05/15 02:00:40;;;;;;;30.92;17.80;;;;;;;6.61;100.00;101706.47;5137566;27;20172;-76
2023/05/15 02:03:05;;;;;;;32.78;19.33;;;;;;;6.65;100.00;101712.44;5137698;27;20056;-77
2023/05/15 02:05:32;;;;;;;32.97;20.23;;;;;;;6.69;100.00;101711.31;5137521;27;20122;-77
2023/05/15 02:07:59;;;;;;;37.35;21.00;;;;;;;6.75;100.00;101699.47;5137433;27;20027;-77
2023/05/15 02:10:25;;;;;;;31.40;20.38;;;;;;;6.79;100.00;101693.06;5137219;27;20050;-77
2023/05/15 02:12:51;;;;;;;31.25;20.40;;;;;;;6.84;100.00;101702.44;5137154;27;20062;-77
2023/05/15 02:15:18;;;;;;;31.05;18.27;;;;;;;6.82;100.00;101691.09;5137349;27;20050;-77
2023/05/15 02:17:43;;;;;;;29.52;18.88;;;;;;;6.83;100.00;101689.31;5137109;27;20019;-77
2023/05/15 02:20:09;;;;;;;28.60;18.85;;;;;;;6.81;100.00;101693.84;5137161;27;20038;-77
2023/05/15 02:22:35;;;;;;;29.35;19.15;;;;;;;6.79;100.00;101686.00;5137503;27;20099;-77
2023/05/15 02:25:00;;;;;;;28.60;16.88;;;;;;;6.75;100.00;101684.47;5137178;27;20080;-77
2023/05/15 02:27:27;;;;;;;25.20;16.45;;;;;;;6.69;100.00;101690.16;5136800;27;20042;-76
2023/05/15 02:30:07;;;;;;;22.50;16.10;;;;;;;6.60;100.00;101680.09;5137391;27;20035;-76
2023/05/15 02:32:44;;;;;;;28.10;18.05;;;;;;;6.51;100.00;101685.03;5137207;27;20455;-77
2023/05/15 02:35:21;;;;;;;21.60;14.32;;;;;;;6.45;100.00;101681.88;5137240;27;20110;-76
2023/05/15 02:37:52;;;;;;;17.92;13.80;;;;;;;6.35;100.00;101682.44;5136985;27;20472;-77
2023/05/15 02:40:19;;;;;;;19.38;14.88;;;;;;;6.28;100.00;101675.81;5136637;27;20034;-77
2023/05/15 02:42:46;;;;;;;18.17;12.27;;;;;;;6.23;100.00;101682.31;5136720;27;20110;-77
2023/05/15 02:45:12;;;;;;;15.48;11.75;;;;;;;6.15;100.00;101673.06;5136782;27;20134;-77
2023/05/15 02:47:39;;;;;;;25.10;16.35;;;;;;;6.15;100.00;101677.47;5136893;27;20031;-77
2023/05/15 02:50:05;;;;;;;25.80;15.88;;;;;;;6.16;100.00;101669.44;5136986;27;20031;-77
2023/05/15 02:52:34;;;;;;;24.95;16.48;;;;;;;6.22;100.00;101684.09;5136195;27;20076;-78
2023/05/15 02:54:59;;;;;;;40.17;22.95;;;;;;;6.30;100.00;101681.00;5136424;27;20027;-77
2023/05/15 02:57:25;;;;;;;46.20;23.95;;;;;;;6.38;100.00;101675.28;5137090;27;20088;-78
2023/05/15 02:59:51;;;;;;;40.08;22.73;;;;;;;6.47;100.00;101678.22;5135949;27;20023;-78
2023/05/15 03:02:17;;;;;;;41.08;22.98;;;;;;;6.55;100.00;101677.75;5136277;27;20106;-77
2023/05/15 03:04:42;;;;;;;44.78;23.55;;;;;;;6.63;100.00;101674.66;5134534;27;20122;-77
2023/05/15 03:07:09;;;;;;;49.40;25.88;;;;;;;6.69;100.00;101675.13;5136489;27;20043;-76
2023/05/15 03:09:34;;;;;;;51.30;27.10;;;;;;;6.76;100.00;101688.81;5135598;27;20131;-78
2023/05/15 03:11:59;;;;;;;54.75;27.88;;;;;;;6.87;100.00;101688.19;5136447;27;20029;-77
2023/05/15 03:14:25;;;;;;;45.67;25.83;;;;;;;6.93;100.00;101687.78;5136493;27;20038;-77
2023/05/15 03:16:50;;;;;;;47.95;27.20;;;;;;;7.01;100.00;101684.66;5136111;27;20103;-77
2023/05/15 03:19:15;;;;;;;52.38;27.33;;;;;;;7.06;100.00;101686.09;5136695;27;20039;-78
2023/05/15 03:21:41;;;;;;;53.60;27.77;;;;;;;7.13;100.00;101694.47;5136370;27;20031;-78
2023/05/15 03:24:06;;;;;;;47.17;26.15;;;;;;;7.17;100.00;101696.00;5136103;27;20427;-78
2023/05/15 03:26:32;;;;;;;51.70;27.60;;;;;;;7.23;100.00;101692.13;5135649;27;20034;-77
2023/05/15 03:28:57;;;;;;;56.85;28.40;;;;;;;7.33;100.00;101700.31;5136107;27;20039;-77
2023/05/15 03:31:22;;;;;;;51.88;27.23;;;;;;;7.39;100.00;101697.31;5134500;27;20114;-78
2023/05/15 03:33:49;;;;;;;42.33;23.95;;;;;;;7.45;100.00;101696.03;5135631;27;20102;-78
2023/05/15 03:36:14;;;;;;;46.92;25.98;;;;;;;7.51;100.00;101700.94;5135517;27;20031;-77
2023/05/15 03:38:42;;;;;;;50.00;26.25;;;;;;;7.56;100.00;101706.81;5135176;27;20038;-78
2023/05/15 03:41:08;;;;;;;46.53;27.30;;;;;;;7.63;100.00;101708.13;5135174;27;20035;-77
2023/05/15 03:43:33;;;;;;;44.28;26.70;;;;;;;7.69;100.00;101710.38;5135599;27;20344;-77
2023/05/15 03:45:59;;;;;;;43.17;25.35;;;;;;;7.75;100.00;101701.19;5136083;27;20416;-76
2023/05/15 03:48:24;;;;;;;45.13;25.73;;;;;;;7.78;100.00;101711.59;5135276;27;20535;-77
2023/05/15 03:50:51;;;;;;;39.03;25.05;;;;;;;7.81;100.00;101703.44;5135273;27;20051;-77
2023/05/15 03:53:16;;;;;;;38.05;23.58;;;;;;;7.84;100.00;101708.53;5135213;27;20035;-76
2023/05/15 03:55:42;;;;;;;41.13;23.45;;;;;;;7.89;100.00;101708.22;5135184;27;20490;-77
2023/05/15 03:58:07;;;;;;;39.10;23.38;;;;;;;7.92;100.00;101700.91;5135415;27;20031;-77
2023/05/15 04:00:32;;;;;;;38.65;21.65;;;;;;;7.92;100.00;101692.97;5134825;27;20026;-77
2023/05/15 04:02:58;;;;;;;35.20;21.50;;;;;;;7.92;100.00;101690.31;5134959;27;20118;-77
2023/05/15 04:05:23;;;;;;;33.70;20.85;;;;;;;7.90;100.00;101700.19;5135007;27;20103;-77
2023/05/15 04:07:48;;;;;;;31.45;21.08;;;;;;;7.94;100.00;101703.47;5135289;27;20046;-77
2023/05/15 04:10:14;;;;;;;39.05;21.83;;;;;;;8.00;100.00;101695.13;5133842;27;20479;-77
2023/05/15 04:12:39;;;;;;;33.35;21.00;;;;;;;8.07;100.00;101700.88;5135002;27;20428;-78
2023/05/15 04:15:21;;;;;;;33.83;20.60;;;;;;;8.14;100.00;101688.91;5135339;27;20360;-77
2023/05/15 04:17:48;;;;;;;31.25;19.80;;;;;;;8.20;100.00;101695.59;5135015;27;20035;-77
2023/05/15 04:20:16;;;;;;;33.85;21.30;;;;;;;8.23;100.00;101685.63;5135213;27;20142;-77
2023/05/15 04:22:42;;;;;;;30.85;19.25;;;;;;;8.29;100.00;101694.97;5134433;27;20176;-77
2023/05/15 04:25:08;;;;;;;32.60;18.02;;;;;;;8.33;100.00;101698.28;5134795;27;20038;-78
2023/05/15 04:27:35;;;;;;;26.50;18.20;;;;;;;8.39;100.00;101697.84;5134628;27;20062;-77
2023/05/15 04:30:02;;;;;;;29.88;18.58;;;;;;;8.43;100.00;101699.34;5134483;27;20122;-77
2023/05/15 04:32:29;;;;;;;29.05;18.00;;;;;;;8.47;100.00;101695.56;5134756;27;20023;-78
2023/05/15 04:34:55;;;;;;;25.35;17.33;;;;;;;8.52;100.00;101695.25;5134592;27;20031;-77
2023/05/15 04:37:20;;;;;;;26.02;17.20;;;;;;;8.55;100.00;101689.75;5134321;27;20471;-76
2023/05/15 04:39:45;;;;;;;24.55;16.17;;;;;;;8.59;100.00;101680.63;5134030;27;20070;-76
2023/05/15 04:42:11;;;;;;;19.58;14.82;;;;;;;8.65;100.00;101691.66;5133031;27;20122;-76
2023/05/15 04:44:36;;;;;;;24.45;16.45;;;;;;;8.73;100.00;101683.19;5134661;27;20382;-77
2023/05/15 04:47:02;;;;;;;24.38;15.38;;;;;;;8.82;100.00;101679.00;5134381;27;20039;-77
2023/05/15 04:49:27;;;;;;;24.95;16.08;;;;;;;8.91;100.00;101693.44;5134150;27;20054;-77
2023/05/15 04:51:52;;;;;;;21.00;15.95;;;;;;;8.97;100.00;101688.56;5134466;27;20104;-77
2023/05/15 04:54:18;;;;;;;19.77;14.70;;;;;;;9.00;100.00;101691.00;5134160;27;20051;-77
2023/05/15 04:56:44;;;;;;;24.67;15.82;;;;;;;9.05;100.00;101688.03;5134250;27;20360;-77
2023/05/15 04:59:10;;;;;;;18.55;13.82;;;;;;;9.09;100.00;101681.56;5133211;27;20376;-77
2023/05/15 05:01:36;;;;;;;21.77;14.30;;;;;;;9.13;100.00;101674.22;5134266;27;20038;-77
2023/05/15 05:04:01;;;;;;;18.65;14.65;;;;;;;9.14;100.00;101676.75;5134389;27;20031;-77
2023/05/15 05:06:27;;;;;;;19.42;14.90;;;;;;;9.19;100.00;101673.75;5134011;27;20387;-77
2023/05/15 05:08:52;;;;;;;20.58;15.68;;;;;;;9.25;100.00;101672.47;5134207;27;20403;-77
2023/05/15 05:11:18;;;;;;;21.10;15.40;;;;;;;9.30;100.00;101668.53;5133221;28;20103;-76
2023/05/15 05:13:43;;;;;;;18.05;15.43;;;;;;;9.35;100.00;101668.22;5133516;27;20031;-78
2023/05/15 05:16:08;;;;;;;21.02;16.20;;;;;;;9.42;100.00;101669.47;5134179;28;20110;-76
2023/05/15 05:18:34;;;;;;;21.05;15.30;;;;;;;9.49;100.00;101670.72;5133690;28;20471;-76
2023/05/15 05:21:00;;;;;;;23.63;15.85;;;;;;;9.54;100.00;101673.03;5134066;27;20100;-76
2023/05/15 05:23:26;;;;;;;19.33;16.20;;;;;;;9.58;100.00;101660.38;5134381;28;20053;-76
2023/05/15 05:25:52;;;;;;;19.50;16.60;;;;;;;9.63;100.00;101664.41;5134231;27;20031;-76
2023/05/15 05:28:17;;;;;;;24.98;16.73;;;;;;;9.74;100.00;101663.59;5133652;27;20031;-76
2023/05/15 05:30:46;;;;;;;26.90;17.42;;;;;;;9.79;100.00;101661.47;5133723;27;20037;-76
2023/05/15 05:33:11;;;;;;;23.38;18.50;;;;;;;9.86;100.00;101659.19;5133786;27;20350;-78
2023/05/15 05:35:37;;;;;;;23.00;18.13;;;;;;;9.91;100.00;101662.31;5133444;27;20126;-76
2023/05/15 05:38:03;;;;;;;27.83;18.42;;;;;;;9.91;100.00;101659.66;5132246;28;20053;-77
2023/05/15 05:40:29;;;;;;;26.25;19.08;;;;;;;9.93;100.00;101652.44;5133776;27;20151;-77
2023/05/15 05:42:57;;;;;;;27.30;19.52;;;;;;;9.94;100.00;101654.16;5134024;27;20046;-77
2023/05/15 05:45:22;;;;;;;28.15;19.48;;;;;;;9.98;100.00;101644.13;5132418;28;20475;-78
2023/05/15 05:47:48;;;;;;;25.67;19.35;;;;;;;9.98;100.00;101649.44;5133396;28;20027;-77
2023/05/15 05:50:13;;;;;;;27.90;19.90;;;;;;;10.02;100.00;101649.09;5133703;28;20432;-77
2023/05/15 05:52:38;;;;;;;20.50;17.25;;;;;;;10.07;100.00;101644.25;5132688;28;20024;-76
2023/05/15 05:55:04;;;;;;;27.50;18.38;;;;;;;10.15;100.00;101641.03;5133554;27;20172;-75
2023/05/15 05:57:29;;;;;;;25.23;18.80;;;;;;;10.20;100.00;101641.53;5132816;28;20035;-76
2023/05/15 05:59:55;;;;;;;22.73;16.88;;;;;;;10.23;100.00;101646.63;5133428;28;20039;-77
2023/05/15 06:02:20;;;;;;;20.27;16.83;;;;;;;10.23;100.00;101641.28;5133524;28;20043;-77
2023/05/15 06:04:46;;;;;;;22.17;17.25;;;;;;;10.27;100.00;101649.91;5133533;27;20227;-76
2023/05/15 06:07:11;;;;;;;25.45;19.98;;;;;;;10.29;100.00;101649.78;5132931;28;20375;-77
2023/05/15 06:09:36;;;;;;;25.60;20.40;;;;;;;10.37;100.00;101642.91;5133431;27;20043;-77
2023/05/15 06:12:03;;;;;;;20.83;17.48;;;;;;;10.44;100.00;101640.66;5133488;27;20035;-77
2023/05/15 06:14:29;;;;;;;28.17;18.88;;;;;;;10.51;100.00;101635.69;5133324;27;20035;-77
2023/05/15 06:16:55;;;;;;;26.20;18.85;;;;;;;10.57;100.00;101643.22;5132134;28;20028;-77
2023/05/15 06:19:20;;;;;;;24.63;19.58;;;;;;;10.58;100.00;101640.44;5133835;27;20374;-77
2023/05/15 06:21:46;;;;;;;27.25;20.80;;;;;;;10.61;100.00;101641.16;5133377;27;20150;-77
2023/05/15 06:24:11;;;;;;;27.75;20.48;;;;;;;10.69;100.00;101642.25;5133067;27;20466;-76
2023/05/15 06:26:37;;;;;;;33.58;20.85;;;;;;;10.77;100.00;101641.63;5134436;27;20452;-77
2023/05/15 06:29:02;;;;;;;26.15;21.10;;;;;;;10.85;100.00;101651.69;5137335;27;20035;-77
2023/05/15 06:31:27;;;;;;;30.42;21.35;;;;;;;10.96;100.00;101650.81;5137080;27;20031;-77
2023/05/15 06:33:53;;;;;;;33.95;21.52;;;;;;;11.04;100.00;101640.41;5135734;27;20572;-77
2023/05/15 06:36:18;;;;;;;27.98;21.25;;;;;;;11.10;100.00;101645.25;5136894;27;20114;-77
2023/05/15 06:38:43;;;;;;;30.45;22.48;;;;;;;11.21;100.00;101642.59;5137330;27;20046;-77
2023/05/15 06:41:09;;;;;;;31.23;22.73;;;;;;;11.34;100.00;101639.75;5135666;27;20027;-76
2023/05/15 06:43:34;;;;;;;29.20;22.85;;;;;;;11.47;100.00;101645.78;5135971;27;20031;-77
2023/05/15 06:46:00;;;;;;;32.53;21.38;;;;;;;11.58;100.00;101639.56;5136685;27;20023;-77
2023/05/15 06:48:25;;;;;;;27.90;21.17;;;;;;;11.64;100.00;101644.41;5135383;27;20041;-77
2023/05/15 06:50:51;;;;;;;25.77;21.25;;;;;;;11.74;100.00;101646.31;5136470;27;20127;-77
2023/05/15 06:53:17;;;;;;;25.05;19.77;;;;;;;11.80;100.00;101645.81;5136363;27;20046;-77
2023/05/15 06:55:42;;;;;;;26.52;21.67;;;;;;;11.87;100.00;101649.66;5136342;27;20027;-77
2023/05/15 06:58:08;;;;;;;26.58;21.50;;;;;;;11.92;100.00;101650.09;5136355;27;20028;-76
2023/05/15 07:00:33;;;;;;;27.40;20.33;;;;;;;11.96;100.00;101648.09;5135920;27;20107;-78
2023/05/15 07:02:59;;;;;;;24.73;19.95;;;;;;;11.96;100.00;101648.91;5136304;27;20031;-76
2023/05/15 07:05:24;;;;;;;25.98;19.88;;;;;;;11.97;100.00;101655.97;5136623;27;20051;-77
2023/05/15 07:07:49;;;;;;;26.83;20.33;;;;;;;11.86;100.00;101655.97;5136437;27;20039;-77
2023/05/15 07:10:15;;;;;;;24.50;19.77;;;;;;;11.84;100.00;101665.91;5136272;27;20103;-77
2023/05/15 07:12:40;;;;;;;27.23;20.52;;;;;;;11.82;100.00;101662.50;5135797;27;20068;-77
2023/05/15 07:15:06;;;;;;;27.92;19.60;;;;;;;11.80;100.00;101667.13;5136606;27;20059;-77
2023/05/15 07:17:32;;;;;;;25.33;18.75;;;;;;;11.78;100.00;101666.44;5136072;27;20435;-77
2023/05/15 07:19:58;;;;;;;25.88;20.80;;;;;;;11.70;100.00;101663.53;5135557;27;20031;-77
2023/05/15 07:22:26;;;;;;;28.35;21.10;;;;;;;11.66;100.00;101668.28;5136022;27;20034;-77
2023/05/15 07:24:51;;;;;;;27.48;20.65;;;;;;;11.57;100.00;101667.22;5136358;27;20027;-77
2023/05/15 07:27:16;;;;;;;26.98;20.90;;;;;;;11.52;100.00;101676.56;5134534;27;20122;-77
2023/05/15 07:29:42;;;;;;;28.02;21.27;;;;;;;11.40;100.00;101679.22;5134463;27;20128;-78
2023/05/15 07:32:07;;;;;;;27.70;21.98;;;;;;;11.36;100.00;101676.94;5135748;27;20027;-77
2023/05/15 07:34:32;;;;;;;33.60;23.08;;;;;;;11.35;100.00;101672.59;5135944;27;20371;-77
2023/05/15 07:36:58;;;;;;;28.65;22.73;;;;;;;11.35;100.00;101676.09;5135028;27;20352;-76
2023/05/15 07:39:23;;;;;;;32.10;23.27;;;;;;;11.35;100.00;101675.25;5135684;27;20059;-77
2023/05/15 07:41:48;;;;;;;28.50;22.33;;;;;;;11.33;100.00;101669.19;5135667;27;20035;-77
2023/05/15 07:44:14;;;;;;;34.38;24.08;;;;;;;11.35;100.00;101681.44;5134897;27;20095;-77
2023/05/15 07:46:39;;;;;;;33.80;24.60;;;;;;;11.42;100.00;101677.31;5135411;27;20031;-77
2023/05/15 07:49:04;;;;;;;36.22;24.45;;;;;;;11.41;100.00;101677.44;5135627;27;20031;-77
2023/05/15 07:51:30;;;;;;;34.50;24.30;;;;;;;11.34;100.00;101679.72;5135242;27;20043;-76
2023/05/15 07:53:55;;;;;;;32.20;22.95;;;;;;;11.37;100.00;101675.97;5135068;27;20033;-77
2023/05/15 07:56:21;;;;;;;37.45;24.50;;;;;;;11.29;100.00;101669.44;5135442;27;20178;-77
2023/05/15 07:58:46;;;;;;;38.63;25.42;;;;;;;11.28;100.00;101677.56;5134703;27;20042;-77
2023/05/15 08:01:11;;;;;;;42.10;27.15;;;;;;;11.28;100.00;101669.56;5134868;27;20058;-76
2023/05/15 08:03:37;;;;;;;42.08;25.70;;;;;;;11.26;100.00;101677.69;5135444;27;20034;-77
2023/05/15 08:06:02;;;;;;;38.20;25.85;;;;;;;11.23;100.00;101677.94;5135303;27;20043;-77
2023/05/15 08:08:28;;;;;;;42.92;27.02;;;;;;;11.28;100.00;101682.88;5134848;27;20028;-78
2023/05/15 08:10:53;;;;;;;42.22;25.77;;;;;;;11.29;100.00;101681.94;5134913;27;20042;-78
2023/05/15 08:13:18;;;;;;;52.30;29.15;;;;;;;11.29;100.00;101679.25;5135018;27;20061;-77
2023/05/15 08:15:44;;;;;;;46.92;28.67;;;;;;;11.35;100.00;101680.59;5134785;27;20042;-77
2023/05/15 08:18:10;;;;;;;50.10;29.30;;;;;;;11.37;100.00;101678.63;5134492;27;20155;-77
2023/05/15 08:20:36;;;;;;;48.30;29.25;;;;;;;11.37;100.00;101678.63;5133560;27;20020;-77
2023/05/15 08:23:02;;;;;;;50.08;30.98;;;;;;;11.35;100.00;101676.09;5134586;27;20127;-77
2023/05/15 08:25:27;;;;;;;47.95;29.60;;;;;;;11.34;100.00;101679.72;5134829;27;20469;-78
2023/05/15 08:27:52;;;;;;;50.88;30.52;;;;;;;11.37;100.00;101679.47;5135275;27;20027;-77
2023/05/15 08:30:18;;;;;;;56.97;31.25;;;;;;;11.42;100.00;101679.97;5134360;27;20467;-77
2023/05/15 08:32:44;;;;;;;53.33;29.35;;;;;;;11.43;100.00;101672.81;5134457;27;20471;-77
2023/05/15 08:35:10;;;;;;;53.83;29.27;;;;;;;11.43;100.00;101686.13;5134475;27;20023;-77
2023/05/15 08:37:36;;;;;;;55.92;29.90;;;;;;;11.47;100.00;101671.59;5134112;27;20038;-76
2023/05/15 08:40:04;;;;;;;48.65;28.90;;;;;;;11.56;100.00;101676.16;5132788;27;20038;-77
2023/05/15 08:42:51;;;;;;;47.83;27.65;;;;;;;11.71;100.00;101682.06;5134303;27;20084;-77
2023/05/15 08:45:17;;;;;;;43.20;25.98;;;;;;;11.85;100.00;101680.09;5134891;27;20367;-76
2023/05/15 08:47:43;;;;;;;48.40;26.98;;;;;;;11.93;100.00;101685.69;5134010;27;20119;-77
2023/05/15 08:50:14;;;;;;;44.45;27.85;;;;;;;12.01;100.00;101685.88;5133652;27;20382;-77
2023/05/15 08:52:46;;;;;;;44.03;25.48;;;;;;;12.10;100.00;101681.59;5134360;27;20034;-77
2023/05/15 08:55:16;;;;;;;36.40;22.90;;;;;;;12.19;100.00;101679.97;5134261;27;20031;-78
2023/05/15 08:57:42;;;;;;;37.38;21.25;;;;;;;12.25;100.00;101684.78;5134881;27;20371;-78
2023/05/15 09:00:10;;;;;;;35.25;23.10;;;;;;;12.33;100.00;101683.16;5134223;27;20063;-77
2023/05/15 09:02:37;;;;;;;40.83;23.50;;;;;;;12.39;100.00;101687.16;5134051;27;20027;-79
2023/05/15 09:05:07;;;;;;;31.67;19.65;;;;;;;12.32;100.00;101689.47;5132474;27;20418;-77
2023/05/15 09:07:33;;;;;;;28.48;18.45;;;;;;;12.33;100.00;101691.19;5133970;27;20069;-78
2023/05/15 09:10:00;;;;;;;28.52;18.30;;;;;;;12.41;100.00;101689.69;5133829;27;20039;-78
2023/05/15 09:12:26;;;;;;;25.17;16.63;;;;;;;12.48;100.00;101698.84;5134721;27;20038;-78
2023/05/15 09:15:16;;;;;;;24.30;17.15;;;;;;;12.44;100.00;101690.25;5133887;27;20039;-78
2023/05/15 09:17:42;;;;;;;26.70;17.00;;;;;;;12.44;100.00;101700.09;5134223;27;20079;-78
2023/05/15 09:20:24;;;;;;;23.05;16.45;;;;;;;12.43;100.00;101693.91;5133784;27;20035;-78
2023/05/15 09:22:50;;;;;;;25.20;15.55;;;;;;;12.58;100.00;101689.06;5134353;27;20073;-78
2023/05/15 09:25:34;;;;;;;20.63;14.65;;;;;;;12.78;100.00;101694.53;5134228;27;20047;-78
2023/05/15 09:28:00;;;;;;;19.85;14.52;;;;;;;12.91;100.00;101683.63;5134657;27;20087;-78
2023/05/15 09:30:26;;;;;;;19.33;14.27;;;;;;;12.90;100.00;101692.59;5134472;28;20323;-78
2023/05/15 09:32:53;;;;;;;21.73;15.20;;;;;;;12.94;100.00;101686.03;5132607;28;20038;-77
2023/05/15 09:35:35;;;;;;;19.95;14.60;;;;;;;12.96;100.00;101686.75;5134437;27;20035;-76
2023/05/15 09:38:02;;;;;;;20.98;14.70;;;;;;;12.90;100.00;101685.47;5134087;27;20034;-76
2023/05/15 09:40:31;;;;;;;26.95;15.82;;;;;;;12.90;100.00;101689.94;5133933;27;20035;-76
2023/05/15 09:42:57;;;;;;;20.83;14.52;;;;;;;12.90;100.00;101698.81;5133544;27;20058;-76
2023/05/15 09:45:25;;;;;;;21.60;14.95;;;;;;;12.88;100.00;101695.41;5134169;27;20030;-76
2023/05/15 09:47:51;;;;;;;20.58;15.70;;;;;;;12.79;100.00;101705.06;5133525;27;20031;-77
2023/05/15 09:50:30;;;;;;;23.42;16.27;;;;;;;12.63;100.00;101694.00;5133825;28;20042;-75
2023/05/15 09:52:58;;;;;;;20.10;15.23;;;;;;;12.53;100.00;101696.66;5133877;27;20531;-76
2023/05/15 09:55:23;;;;;;;23.48;15.98;;;;;;;12.48;100.00;101704.19;5134288;27;20028;-76
2023/05/15 09:58:05;;;;;;;28.08;15.40;;;;;;;12.37;100.00;101704.25;5133588;27;20027;-76
2023/05/15 10:00:32;;;;;;;20.27;14.38;;;;;;;12.26;100.00;101713.19;5135137;27;20026;-76
2023/05/15 10:02:59;;;;;;;25.95;13.63;;;;;;;12.23;100.00;101708.09;5137626;27;20027;-76
2023/05/15 10:05:29;;;;;;;16.20;11.98;;;;;;;12.37;100.00;101707.75;5137343;27;20051;-75
2023/05/15 10:07:55;;;;;;;16.13;11.32;;;;;;;12.68;100.00;101699.81;5137922;27;20038;-75
2023/05/15 10:10:21;;;;;;;15.02;10.60;;;;;;;13.07;100.00;101705.34;5137605;27;20116;-78
2023/05/15 10:12:51;;;;;;;12.75;7.28;;;;;;;13.51;100.00;101700.59;5137489;27;20169;-74
2023/05/15 10:15:21;;;;;;;9.85;5.97;;;;;;;13.81;100.00;101698.81;5137124;27;20471;-76
2023/05/15 10:17:48;;;;;;;11.85;5.88;;;;;;;13.86;100.00;101709.09;5137221;27;20035;-77
2023/05/15 10:20:16;;;;;;;12.55;4.85;;;;;;;13.92;100.00;101711.22;5137348;27;20035;-76
2023/05/15 10:22:45;;;;;;;10.43;5.68;;;;;;;14.20;100.00;101708.69;5137313;27;20122;-76
2023/05/15 10:25:26;;;;;;;8.68;4.97;;;;;;;14.24;100.00;101712.75;5137041;27;20137;-76
2023/05/15 10:27:53;;;;;;;8.43;4.10;;;;;;;14.25;100.00;101715.28;5135361;27;20080;-76
2023/05/15 10:30:19;;;;;;;7.32;4.40;;;;;;;14.26;100.00;101716.16;5136896;27;20031;-76
2023/05/15 10:32:45;;;;;;;6.10;4.00;;;;;;;14.12;100.00;101709.38;5136599;27;20035;-75
2023/05/15 10:35:11;;;;;;;6.68;3.85;;;;;;;13.95;100.00;101712.78;5136412;27;20023;-75
2023/05/15 10:37:38;;;;;;;12.70;3.78;;;;;;;13.79;100.00;101716.00;5137227;27;20405;-75
2023/05/15 10:40:07;;;;;;;5.75;3.15;;;;;;;13.63;100.00;101711.16;5135398;27;20027;-76
2023/05/15 10:42:34;;;;;;;7.13;3.33;;;;;;;13.71;100.00;101722.88;5136557;27;20467;-76
2023/05/15 10:45:01;;;;;;;8.95;4.22;;;;;;;13.83;100.00;101714.75;5136102;27;20080;-75
2023/05/15 10:47:28;;;;;;;11.95;4.25;;;;;;;13.73;100.00;101723.59;5136851;27;20046;-76
2023/05/15 10:49:54;;;;;;;11.02;4.95;;;;;;;13.60;100.00;101731.03;5136772;27;20035;-75
2023/05/15 10:52:20;;;;;;;12.15;4.95;;;;;;;13.30;100.00;101727.38;5136897;27;20117;-76
2023/05/15 10:54:45;;;;;;;11.57;5.43;;;;;;;12.92;100.00;101734.25;5136852;27;20114;-75
2023/05/15 10:57:11;;;;;;;12.32;6.20;;;;;;;12.71;100.00;101731.59;5136385;27;20038;-76
2023/05/15 10:59:36;;;;;;;16.77;5.90;;;;;;;12.48;100.00;101728.19;5134988;27;20114;-75
2023/05/15 11:02:24;;;;;;;12.27;5.40;;;;;;;12.28;100.00;101740.56;5136042;27;20058;-75
2023/05/15 11:05:01;;;;;;;16.85;5.68;;;;;;;12.15;100.00;101733.59;5136619;27;20019;-77
2023/05/15 11:07:27;;;;;;;18.63;4.90;;;;;;;12.16;100.00;101735.25;5136575;27;20410;-76